createdAt,value
2023-02-17T00:01:37.829Z,23.25
2023-02-17T00:04:05.995Z,26.25
2023-02-17T00:06:34.627Z,25.70
2023-02-17T00:09:04.668Z,27.23
2023-02-17T00:11:32.658Z,28.23
2023-02-17T00:14:01.284Z,28.27
2023-02-17T00:16:30.276Z,27.80
2023-02-17T00:19:00.402Z,28.50
2023-02-17T00:21:31.385Z,27.48
2023-02-17T00:24:00.193Z,28.23
2023-02-17T00:26:29.754Z,27.85
2023-02-17T00:31:27.119Z,27.15
2023-02-17T00:33:56.688Z,22.77
2023-02-17T00:36:26.121Z,27.33
2023-02-17T00:38:57.539Z,25.80
2023-02-17T00:41:27.393Z,24.88
2023-02-17T00:43:59.873Z,25.35
2023-02-17T00:46:28.754Z,25.23
2023-02-17T00:48:56.705Z,24.90
2023-02-17T00:51:25.588Z,28.65
2023-02-17T00:53:54.160Z,25.52
2023-02-17T00:56:22.178Z,23.23
2023-02-17T00:58:50.030Z,22.02
2023-02-17T01:01:20.245Z,22.30
2023-02-17T01:03:48.236Z,23.02
2023-02-17T01:06:23.044Z,25.10
2023-02-17T01:08:51.630Z,23.45
2023-02-17T01:13:51.197Z,20.83
2023-02-17T01:16:22.943Z,27.25
2023-02-17T01:18:51.556Z,22.77
2023-02-17T01:21:20.539Z,22.90
2023-02-17T01:23:50.366Z,24.60
2023-02-17T01:26:21.638Z,25.63
2023-02-17T01:28:50.492Z,25.42
2023-02-17T01:31:20.666Z,23.02
2023-02-17T01:33:49.260Z,24.83
2023-02-17T01:36:19.002Z,24.83
2023-02-17T01:38:48.125Z,25.23
2023-02-17T01:41:20.895Z,25.48
2023-02-17T01:44:15.196Z,25.23
2023-02-17T01:46:47.790Z,26.08
2023-02-17T01:49:31.206Z,24.77
2023-02-17T01:52:08.820Z,26.02
2023-02-17T01:54:43.852Z,25.45
2023-02-17T01:57:12.687Z,24.65
2023-02-17T01:59:42.059Z,27.55
2023-02-17T02:02:13.224Z,25.50
2023-02-17T02:04:45.787Z,24.38
2023-02-17T02:07:17.439Z,23.95
2023-02-17T02:09:51.686Z,27.25
2023-02-17T02:12:22.543Z,26.33
2023-02-17T02:14:51.818Z,30.85
2023-02-17T02:17:34.356Z,26.27
2023-02-17T02:20:40.575Z,24.30
2023-02-17T02:23:24.483Z,25.80
2023-02-17T02:26:18.730Z,25.63
2023-02-17T02:29:09.257Z,24.10
2023-02-17T02:31:47.181Z,27.10
2023-02-17T02:34:22.572Z,24.77
2023-02-17T02:36:57.762Z,27.95
2023-02-17T02:39:34.153Z,26.88
2023-02-17T02:42:05.952Z,26.88
2023-02-17T02:44:34.868Z,24.83
2023-02-17T02:47:04.926Z,26.77
2023-02-17T02:49:38.165Z,25.50
2023-02-17T02:52:16.975Z,25.73
2023-02-17T02:54:57.436Z,24.35
2023-02-17T02:57:42.342Z,25.00
2023-02-17T03:00:21.652Z,26.20
2023-02-17T03:02:55.131Z,24.73
2023-02-17T03:05:33.820Z,28.88
2023-02-17T03:08:09.375Z,24.40
2023-02-17T03:10:37.789Z,20.63
2023-02-17T03:13:07.706Z,24.13
2023-02-17T03:15:37.109Z,21.55
2023-02-17T03:18:05.576Z,25.80
2023-02-17T03:23:27.144Z,26.67
2023-02-17T03:25:55.527Z,24.42
2023-02-17T03:28:24.423Z,27.75
2023-02-17T03:30:52.868Z,23.95
2023-02-17T03:33:21.780Z,24.77
2023-02-17T03:35:51.035Z,22.60
2023-02-17T03:38:19.454Z,23.42
2023-02-17T03:40:48.283Z,21.75
2023-02-17T03:43:18.074Z,23.08
2023-02-17T03:45:46.761Z,21.90
2023-02-17T03:48:15.303Z,23.88
2023-02-17T03:50:43.245Z,21.38
2023-02-17T03:53:13.531Z,22.35
2023-02-17T03:55:42.574Z,22.15
2023-02-17T03:58:10.650Z,23.88
2023-02-17T04:00:39.598Z,21.77
2023-02-17T04:03:08.068Z,23.23
2023-02-17T04:05:36.113Z,22.08
2023-02-17T04:08:04.486Z,22.70
2023-02-17T04:10:33.827Z,23.02
2023-02-17T04:13:01.758Z,22.38
2023-02-17T04:15:31.397Z,22.40
2023-02-17T04:17:59.317Z,19.27
2023-02-17T04:20:27.699Z,24.17
2023-02-17T04:22:56.034Z,22.33
2023-02-17T04:25:23.979Z,24.60
2023-02-17T04:27:54.075Z,26.15
2023-02-17T04:30:22.305Z,23.33
2023-02-17T04:32:50.210Z,22.95
2023-02-17T04:35:19.526Z,24.23
2023-02-17T04:37:47.414Z,21.45
2023-02-17T04:40:16.437Z,27.02
2023-02-17T04:42:44.766Z,23.95
2023-02-17T04:45:16.456Z,22.80
2023-02-17T04:47:45.646Z,24.35
2023-02-17T04:50:13.848Z,21.40
2023-02-17T04:52:42.217Z,24.15
2023-02-17T04:55:10.991Z,24.65
2023-02-17T04:57:38.897Z,23.38
2023-02-17T05:00:08.927Z,25.05
2023-02-17T05:02:38.422Z,23.45
2023-02-17T05:05:07.200Z,27.85
2023-02-17T05:07:37.842Z,24.73
2023-02-17T05:10:06.304Z,27.52
2023-02-17T05:12:35.488Z,25.07
2023-02-17T05:15:03.898Z,24.88
2023-02-17T05:17:32.425Z,24.25
2023-02-17T05:20:02.084Z,23.17
2023-02-17T05:22:31.067Z,22.40
2023-02-17T05:24:59.560Z,21.42
2023-02-17T05:27:27.994Z,21.50
2023-02-17T05:29:56.391Z,30.33
2023-02-17T05:32:24.995Z,22.70
2023-02-17T05:34:52.909Z,22.13
2023-02-17T05:37:23.219Z,20.92
2023-02-17T05:39:51.162Z,19.60
2023-02-17T05:42:19.559Z,19.02
2023-02-17T05:44:47.954Z,16.73
2023-02-17T05:47:16.000Z,18.50
2023-02-17T05:49:43.913Z,17.90
2023-02-17T05:52:12.797Z,18.05
2023-02-17T05:54:42.249Z,19.05
2023-02-17T05:57:10.236Z,21.40
2023-02-17T05:59:38.617Z,17.73
2023-02-17T06:02:06.613Z,21.00
2023-02-17T06:04:34.893Z,19.23
2023-02-17T06:07:03.459Z,19.98
2023-02-17T06:09:31.512Z,19.35
2023-02-17T06:12:01.334Z,19.00
2023-02-17T06:14:29.358Z,17.55
2023-02-17T06:16:58.515Z,19.10
2023-02-17T06:19:28.077Z,18.60
2023-02-17T06:21:57.512Z,18.90
2023-02-17T06:24:25.470Z,17.42
2023-02-17T06:26:53.488Z,16.80
2023-02-17T06:29:23.650Z,17.27
2023-02-17T06:31:51.758Z,13.98
2023-02-17T06:34:19.738Z,14.65
2023-02-17T06:36:48.608Z,14.95
2023-02-17T06:39:16.540Z,15.23
2023-02-17T06:41:44.860Z,15.93
2023-02-17T06:44:13.262Z,14.88
2023-02-17T06:46:42.982Z,15.32
2023-02-17T06:49:10.845Z,14.75
2023-02-17T06:51:39.637Z,13.88
2023-02-17T06:54:07.634Z,12.85
2023-02-17T06:56:36.449Z,13.60
2023-02-17T06:59:05.363Z,13.82
2023-02-17T07:01:33.340Z,13.38
2023-02-17T07:04:02.638Z,12.98
2023-02-17T07:06:31.480Z,13.93
2023-02-17T07:08:59.475Z,13.85
2023-02-17T07:11:31.322Z,12.50
2023-02-17T07:14:01.265Z,12.70
2023-02-17T07:16:29.245Z,12.38
2023-02-17T07:18:57.757Z,12.27
2023-02-17T07:21:27.709Z,12.07
2023-02-17T07:23:55.670Z,12.30
2023-02-17T07:26:23.827Z,11.90
2023-02-17T07:28:52.972Z,12.07
2023-02-17T07:31:21.116Z,13.90
2023-02-17T07:33:50.627Z,12.77
2023-02-17T07:36:19.395Z,12.70
2023-02-17T07:38:49.443Z,12.60
2023-02-17T07:41:20.176Z,14.82
2023-02-17T07:43:49.360Z,13.65
2023-02-17T07:46:18.053Z,12.88
2023-02-17T07:48:47.139Z,11.55
2023-02-17T07:51:17.181Z,13.38
2023-02-17T07:53:45.530Z,13.35
2023-02-17T07:56:16.870Z,13.70
2023-02-17T07:58:46.802Z,11.93
2023-02-17T08:01:17.767Z,13.05
2023-02-17T08:03:46.979Z,16.38
2023-02-17T08:06:19.977Z,14.80
2023-02-17T08:09:05.846Z,14.98
2023-02-17T08:11:53.755Z,13.27
2023-02-17T08:14:22.816Z,12.48
2023-02-17T08:16:50.839Z,12.33
2023-02-17T08:19:19.850Z,12.05
2023-02-17T08:21:47.927Z,13.95
2023-02-17T08:24:16.573Z,11.90
2023-02-17T08:26:46.404Z,13.27
2023-02-17T08:29:15.048Z,13.35
2023-02-17T08:31:44.082Z,12.43
2023-02-17T08:34:14.491Z,13.63
2023-02-17T08:39:13.630Z,10.63
2023-02-17T08:41:42.729Z,11.95
2023-02-17T08:44:14.184Z,12.03
2023-02-17T08:46:43.429Z,13.35
2023-02-17T08:49:12.257Z,13.57
2023-02-17T08:51:40.623Z,14.23
2023-02-17T08:54:11.420Z,12.32
2023-02-17T08:56:41.595Z,13.73
2023-02-17T08:59:12.142Z,14.02
2023-02-17T09:01:41.365Z,12.32
2023-02-17T09:04:11.946Z,12.15
2023-02-17T09:06:42.156Z,14.02
2023-02-17T09:09:12.912Z,12.68
2023-02-17T09:11:41.105Z,15.27
2023-02-17T09:14:09.373Z,14.45
2023-02-17T09:16:41.500Z,13.25
2023-02-17T09:19:09.849Z,12.75
2023-02-17T09:21:37.854Z,15.85
2023-02-17T09:24:07.501Z,14.93
2023-02-17T09:26:36.043Z,13.45
2023-02-17T09:29:05.098Z,15.43
2023-02-17T09:31:36.112Z,13.93
2023-02-17T09:34:06.646Z,15.10
2023-02-17T09:36:40.338Z,14.73
2023-02-17T09:39:12.320Z,14.73
2023-02-17T09:41:45.509Z,15.60
2023-02-17T09:44:22.165Z,14.50
2023-02-17T09:47:02.531Z,16.30
2023-02-17T09:49:39.783Z,16.83
2023-02-17T09:52:15.762Z,16.58
2023-02-17T09:54:53.579Z,16.75
2023-02-17T09:57:25.436Z,14.82
2023-02-17T09:59:59.940Z,14.43
2023-02-17T10:02:35.109Z,17.45
2023-02-17T10:05:08.644Z,15.18
2023-02-17T10:07:42.449Z,16.75
2023-02-17T10:10:15.687Z,16.02
2023-02-17T10:12:47.981Z,15.93
2023-02-17T10:15:19.958Z,16.67
2023-02-17T10:17:54.304Z,17.63
2023-02-17T10:20:30.090Z,15.20
2023-02-17T10:23:10.403Z,15.40
2023-02-17T10:28:20.044Z,14.38
2023-02-17T10:30:56.086Z,15.20
2023-02-17T10:33:30.448Z,14.02
2023-02-17T10:36:12.768Z,15.15
2023-02-17T10:38:51.390Z,13.77
2023-02-17T10:41:24.112Z,15.15
2023-02-17T10:43:53.207Z,14.90
2023-02-17T10:46:28.134Z,13.25
2023-02-17T10:48:58.235Z,12.70
2023-02-17T10:51:29.395Z,14.18
2023-02-17T10:54:04.438Z,13.77
2023-02-17T10:56:37.221Z,13.90
2023-02-17T10:59:10.335Z,15.90
2023-02-17T11:01:38.572Z,14.23
2023-02-17T11:04:11.581Z,13.45
2023-02-17T11:06:46.662Z,13.48
2023-02-17T11:09:21.202Z,15.98
2023-02-17T11:11:55.144Z,12.32
2023-02-17T11:14:28.593Z,12.40
2023-02-17T11:17:00.560Z,12.55
2023-02-17T11:19:30.626Z,13.02
2023-02-17T11:22:04.498Z,13.32
2023-02-17T11:24:35.190Z,12.63
2023-02-17T11:27:05.632Z,12.70
2023-02-17T11:29:34.223Z,11.90
2023-02-17T11:32:07.571Z,12.48
2023-02-17T11:34:37.529Z,10.88
2023-02-17T11:37:21.974Z,10.82
2023-02-17T11:39:53.432Z,10.43
2023-02-17T11:42:25.191Z,10.18
2023-02-17T11:44:54.890Z,10.90
2023-02-17T11:47:33.774Z,9.38
2023-02-17T11:50:24.051Z,10.40
2023-02-17T11:53:18.169Z,8.77
2023-02-17T11:55:55.142Z,9.90
2023-02-17T11:58:38.584Z,8.95
2023-02-17T12:01:20.411Z,7.57
2023-02-17T12:04:21.893Z,7.90
2023-02-17T12:07:14.098Z,9.23
2023-02-17T12:09:57.525Z,8.65
2023-02-17T12:12:35.452Z,9.48
2023-02-17T12:15:21.081Z,8.85
2023-02-17T12:17:56.930Z,9.88
2023-02-17T12:20:42.845Z,8.35
2023-02-17T12:23:35.676Z,9.23
2023-02-17T12:26:12.937Z,7.82
2023-02-17T12:28:54.122Z,7.00
2023-02-17T12:31:42.610Z,6.40
2023-02-17T12:34:21.676Z,6.57
2023-02-17T12:36:52.001Z,6.53
2023-02-17T12:39:22.978Z,7.25
2023-02-17T12:41:58.817Z,6.80
2023-02-17T12:44:31.254Z,6.70
2023-02-17T12:47:04.002Z,6.13
2023-02-17T12:49:38.188Z,5.82
2023-02-17T12:52:12.100Z,6.43
2023-02-17T12:54:45.045Z,6.28
2023-02-17T12:57:18.620Z,5.80
2023-02-17T12:59:48.408Z,6.32
2023-02-17T13:02:18.445Z,4.78
2023-02-17T13:04:50.933Z,5.43
2023-02-17T13:07:27.936Z,5.32
2023-02-17T13:09:57.785Z,5.50
2023-02-17T13:12:43.306Z,4.45
2023-02-17T13:15:33.715Z,5.82
2023-02-17T13:18:04.398Z,5.22
2023-02-17T13:20:54.507Z,6.35
2023-02-17T13:23:35.318Z,6.20
2023-02-17T13:26:17.886Z,5.32
2023-02-17T13:28:48.552Z,6.93
2023-02-17T13:31:19.288Z,5.72
2023-02-17T13:33:51.907Z,5.70
2023-02-17T13:36:23.580Z,5.88
2023-02-17T13:39:01.804Z,5.22
2023-02-17T13:41:34.078Z,4.88
2023-02-17T13:44:27.631Z,4.35
2023-02-17T13:47:00.207Z,4.63
2023-02-17T13:49:33.037Z,5.80
2023-02-17T13:52:23.439Z,5.32
2023-02-17T13:54:56.924Z,4.45
2023-02-17T13:57:27.556Z,4.88
2023-02-17T14:00:09.704Z,5.65
2023-02-17T14:02:48.343Z,6.10
2023-02-17T14:05:20.423Z,6.50
2023-02-17T14:07:49.652Z,6.35
2023-02-17T14:10:21.723Z,5.28
2023-02-17T14:12:50.329Z,6.95
2023-02-17T14:15:21.864Z,6.75
2023-02-17T14:17:53.129Z,6.25
2023-02-17T14:20:33.832Z,7.30
2023-02-17T14:23:07.321Z,7.22
2023-02-17T14:25:37.947Z,6.18
2023-02-17T14:28:19.493Z,6.25
2023-02-17T14:30:50.483Z,6.82
2023-02-17T14:33:22.048Z,7.22
2023-02-17T14:35:56.127Z,6.65
2023-02-17T14:38:27.086Z,6.82
2023-02-17T14:40:56.556Z,6.15
2023-02-17T14:46:14.413Z,6.38
2023-02-17T14:48:43.236Z,6.40
2023-02-17T14:51:14.167Z,6.25
2023-02-17T14:53:42.256Z,6.53
2023-02-17T14:56:16.476Z,7.60
2023-02-17T14:58:45.320Z,6.72
2023-02-17T15:01:18.170Z,7.40
2023-02-17T15:03:46.387Z,7.78
2023-02-17T15:06:16.901Z,6.20
2023-02-17T15:08:46.403Z,7.50
2023-02-17T15:11:20.877Z,6.82
2023-02-17T15:13:49.132Z,7.50
2023-02-17T15:16:18.763Z,7.18
2023-02-17T15:18:47.617Z,6.05
2023-02-17T15:21:29.671Z,6.22
2023-02-17T15:24:00.566Z,5.45
2023-02-17T15:26:30.373Z,6.20
2023-02-17T15:28:59.133Z,5.97
2023-02-17T15:31:33.450Z,5.50
2023-02-17T15:34:02.573Z,6.10
2023-02-17T15:36:31.783Z,5.47
2023-02-17T15:39:02.274Z,5.18
2023-02-17T15:41:31.741Z,5.32
2023-02-17T15:44:03.946Z,5.03
2023-02-17T15:46:34.556Z,4.68
2023-02-17T15:49:02.919Z,3.95
2023-02-17T15:51:31.464Z,4.82
2023-02-17T15:54:00.522Z,4.63
2023-02-17T15:56:32.449Z,4.38
2023-02-17T15:59:05.537Z,4.55
2023-02-17T16:01:36.689Z,4.75
2023-02-17T16:04:05.636Z,4.68
2023-02-17T16:06:33.584Z,4.65
2023-02-17T16:09:02.423Z,4.13
2023-02-17T16:11:30.747Z,4.40
2023-02-17T16:14:00.693Z,5.00
2023-02-17T16:16:34.043Z,4.35
2023-02-17T16:19:04.401Z,3.95
2023-02-17T16:21:32.288Z,3.97
2023-02-17T16:24:00.754Z,4.10
2023-02-17T16:26:34.164Z,4.65
2023-02-17T16:29:02.746Z,3.53
2023-02-17T16:31:32.722Z,4.65
2023-02-17T16:34:01.695Z,4.78
2023-02-17T16:36:33.346Z,4.57
2023-02-17T16:39:04.164Z,3.15
2023-02-17T16:41:32.115Z,4.72
2023-02-17T16:44:00.013Z,4.05
2023-02-17T16:46:32.796Z,5.22
2023-02-17T16:49:03.248Z,4.50
2023-02-17T16:51:33.420Z,5.22
2023-02-17T16:54:01.362Z,5.25
2023-02-17T16:56:37.006Z,5.03
2023-02-17T16:59:05.821Z,4.90
2023-02-17T17:01:33.854Z,4.70
2023-02-17T17:04:02.668Z,4.07
2023-02-17T17:06:32.450Z,5.72
2023-02-17T17:09:00.321Z,4.50
2023-02-17T17:11:29.653Z,4.80
2023-02-17T17:13:57.780Z,3.97
2023-02-17T17:16:28.327Z,4.80
2023-02-17T17:18:57.201Z,4.10
2023-02-17T17:21:25.227Z,4.30
2023-02-17T17:23:55.537Z,4.00
2023-02-17T17:26:28.965Z,4.43
2023-02-17T17:28:56.941Z,3.92
2023-02-17T17:31:26.575Z,4.30
2023-02-17T17:33:56.328Z,3.97
2023-02-17T17:36:26.694Z,3.88
2023-02-17T17:38:58.071Z,4.93
2023-02-17T17:41:27.899Z,3.85
2023-02-17T17:43:56.279Z,2.83
2023-02-17T17:46:28.790Z,3.83
2023-02-17T17:48:58.792Z,3.92
2023-02-17T17:51:28.831Z,4.38
2023-02-17T17:53:58.759Z,4.18
2023-02-17T17:56:29.944Z,4.53
2023-02-17T17:58:59.523Z,5.00
2023-02-17T18:03:57.779Z,4.90
2023-02-17T18:06:28.210Z,4.68
2023-02-17T18:09:02.539Z,3.47
2023-02-17T18:11:31.578Z,4.50
2023-02-17T18:14:03.184Z,4.50
2023-02-17T18:16:32.536Z,4.40
2023-02-17T18:19:03.722Z,4.57
2023-02-17T18:21:32.211Z,4.03
2023-02-17T18:24:01.484Z,5.00
2023-02-17T18:26:30.459Z,4.20
2023-02-17T18:28:58.887Z,5.97
2023-02-17T18:31:31.166Z,5.07
2023-02-17T18:33:59.131Z,6.00
2023-02-17T18:36:28.351Z,5.80
2023-02-17T18:38:56.671Z,7.03
2023-02-17T18:41:27.737Z,6.05
2023-02-17T18:43:57.479Z,6.00
2023-02-17T18:46:27.088Z,7.90
2023-02-17T18:48:56.171Z,6.40
2023-02-17T18:51:27.887Z,7.43
2023-02-17T18:53:57.579Z,8.40
2023-02-17T18:56:29.062Z,6.23
2023-02-17T18:58:57.800Z,6.45
2023-02-17T19:01:28.216Z,5.60
2023-02-17T19:03:58.339Z,4.38
2023-02-17T19:06:28.165Z,4.45
2023-02-17T19:08:56.375Z,2.58
2023-02-17T19:11:26.552Z,2.80
2023-02-17T19:13:54.619Z,2.33
2023-02-17T19:16:24.624Z,1.90
2023-02-17T19:18:54.116Z,2.45
2023-02-17T19:21:22.928Z,2.07
2023-02-17T19:23:52.223Z,1.63
2023-02-17T19:26:21.193Z,1.70
2023-02-17T19:28:51.241Z,1.88
2023-02-17T19:31:20.960Z,2.58
2023-02-17T19:33:49.402Z,1.75
2023-02-17T19:36:19.689Z,2.25
2023-02-17T19:38:50.266Z,2.33
2023-02-17T19:41:20.262Z,2.00
2023-02-17T19:43:48.495Z,2.10
2023-02-17T19:46:19.838Z,1.90
2023-02-17T19:48:48.434Z,2.28
2023-02-17T19:51:16.343Z,2.00
2023-02-17T19:53:46.049Z,1.52
2023-02-17T19:56:16.609Z,2.05
2023-02-17T19:58:46.692Z,1.77
2023-02-17T20:03:46.508Z,2.20
2023-02-17T20:06:17.718Z,2.22
2023-02-17T20:08:47.380Z,2.20
2023-02-17T20:11:16.542Z,2.20
2023-02-17T20:13:46.333Z,2.00
2023-02-17T20:16:17.201Z,2.13
2023-02-17T20:18:49.416Z,2.15
2023-02-17T20:21:22.287Z,2.20
2023-02-17T20:23:50.892Z,2.63
2023-02-17T20:26:21.742Z,2.53
2023-02-17T20:28:50.589Z,2.45
2023-02-17T20:31:18.859Z,2.70
2023-02-17T20:33:49.784Z,2.58
2023-02-17T20:36:18.285Z,2.22
2023-02-17T20:38:46.873Z,2.63
2023-02-17T20:41:17.993Z,3.15
2023-02-17T20:43:46.303Z,2.40
2023-02-17T20:46:15.886Z,2.35
2023-02-17T20:48:43.982Z,2.30
2023-02-17T20:51:13.408Z,1.63
2023-02-17T20:53:42.039Z,2.22
2023-02-17T20:56:14.351Z,1.50
2023-02-17T20:58:43.579Z,1.83
2023-02-17T21:01:12.321Z,1.10
2023-02-17T21:03:40.863Z,1.42
2023-02-17T21:06:20.537Z,1.67
2023-02-17T21:08:56.452Z,1.35
2023-02-17T21:11:24.946Z,0.80
2023-02-17T21:13:53.313Z,1.58
2023-02-17T21:16:25.086Z,0.70
2023-02-17T21:18:54.430Z,1.08
2023-02-17T21:21:24.778Z,0.90
2023-02-17T21:23:52.881Z,1.23
2023-02-17T21:26:20.798Z,1.10
2023-02-17T21:28:50.710Z,1.42
2023-02-17T21:31:19.090Z,1.05
2023-02-17T21:33:47.595Z,0.98
2023-02-17T21:36:18.550Z,1.15
2023-02-17T21:38:48.905Z,1.20
2023-02-17T21:41:20.613Z,1.45
2023-02-17T21:44:07.718Z,1.10
2023-02-17T21:46:37.482Z,1.05
2023-02-17T21:49:05.611Z,0.63
2023-02-17T21:51:33.986Z,0.90
2023-02-17T21:54:03.794Z,0.80
2023-02-17T21:56:31.975Z,1.05
2023-02-17T21:58:59.923Z,0.95
2023-02-17T22:01:29.680Z,0.73
2023-02-17T22:03:58.670Z,0.88
2023-02-17T22:06:29.710Z,0.80
2023-02-17T22:08:59.444Z,1.92
2023-02-17T22:11:31.256Z,0.52
2023-02-17T22:14:01.258Z,1.40
2023-02-17T22:16:32.164Z,1.08
2023-02-17T22:19:00.568Z,0.80
2023-02-17T22:21:29.740Z,0.95
2023-02-17T22:23:59.340Z,1.35
2023-02-17T22:26:29.684Z,0.93
2023-02-17T22:28:58.160Z,1.52
2023-02-17T22:31:28.377Z,0.70
2023-02-17T22:33:58.134Z,1.10
2023-02-17T22:36:27.468Z,1.20
2023-02-17T22:38:56.279Z,0.95
2023-02-17T22:41:26.705Z,0.95
2023-02-17T22:43:56.355Z,1.20
2023-02-17T22:46:27.344Z,1.30
2023-02-17T22:48:57.133Z,1.25
2023-02-17T22:51:28.160Z,0.85
2023-02-17T22:53:56.852Z,1.17
2023-02-17T22:56:25.002Z,0.85
2023-02-17T22:58:56.915Z,0.88
2023-02-17T23:01:26.564Z,1.05
2023-02-17T23:03:55.251Z,1.25
2023-02-17T23:06:24.869Z,1.10
2023-02-17T23:08:53.843Z,0.95
2023-02-17T23:11:44.926Z,2.05
2023-02-17T23:14:14.145Z,2.67
2023-02-17T23:16:44.138Z,1.00
2023-02-17T23:19:16.056Z,1.20
2023-02-17T23:21:45.323Z,1.05
2023-02-17T23:24:13.866Z,1.80
2023-02-17T23:26:42.807Z,1.53
2023-02-17T23:29:11.235Z,1.65
2023-02-17T23:31:40.144Z,1.33
2023-02-17T23:34:10.558Z,1.05
2023-02-17T23:36:40.074Z,1.15
2023-02-17T23:41:37.152Z,1.50
2023-02-17T23:44:05.655Z,1.92
2023-02-17T23:46:33.592Z,2.13
2023-02-17T23:49:03.757Z,2.67
2023-02-17T23:51:33.377Z,3.83
2023-02-17T23:54:02.056Z,4.15
2023-02-17T23:56:33.315Z,4.25
2023-02-17T23:59:02.281Z,4.50
